Главная страница
METAR-TAF:

METAR-TAF

Аэропорты :

Нуакшот, Мавритания

широта: 18-18-36N, долгота: 015-58-11W, высота над уровнем моря: 3 м

Текущие метеонаблюдения

Эта сводка был подготовлена 48 минут назад, в 12:00 UTC
Ветер 17 Узел от восточно-северо-восточный
Температура 26°C
Влажность 28%
Давление 1016 hPa
Видимость: 4500 м
Низовая песчаная метель

METAR: GQNO 081200Z 07017KT 4500 BLSA NSC 26/06 Q1016 NOSIG

Время: 12:48 (12:48 UTC)

Прогноз

Эта сводка был подготовлена 1 час и 48 минут назад, в 11:00 UTC
Прогноз действительный с 08-го 12 UTC до 09-го 18 UTC
Ветер 14 Узел от восточно-северо-восточный
Видимость: 7000 м
Вероятность 40% :
временами
С 08-го 12 UTC до 08-го 16 UTC
Видимость: 4000 м
Низовая песчаная метель
изменения
С 08-го 17 UTC до 08-го 19 UTC
Ветер 12 Узел от северный

TAF: GQNO 081100Z 0812/0918 07014KT 7000 NSC PROB40 TEMPO 0812/0816 4000 BLSA BECMG 0817/0819 01012KT

Метеонаблюдения и прогнозы для более 4000 аэропортов (сводки METAR и TAF).

Имеющиеся станции представлены на карте желтыми и красными точками.

Чтобы увидеть название станции, наведите на нее мышь.

Затем щелкните, чтобы увидеть метеонаблюдения и метеопрогнозы.

Управление картой: чтобы увеличить масштаб, щелкните зеленые кнопки с черным крестиком; чтобы уменьшить масштаб, щелкните зеленую кнопку с тире; для просмотра соседних карт щелкайте зеленые стрелки.


METAR-TAF: